sensor_id;sensor_type;location;lat;lon;timestamp;temperature;humidity
19397;DHT22;9834;48.076;11.878;2022-09-21T00:01:55;5.10;99.90
19397;DHT22;9834;48.076;11.878;2022-09-21T00:04:22;5.00;99.90
19397;DHT22;9834;48.076;11.878;2022-09-21T00:06:50;5.00;99.90
19397;DHT22;9834;48.076;11.878;2022-09-21T00:09:17;5.00;99.90
19397;DHT22;9834;48.076;11.878;2022-09-21T00:11:44;5.00;99.90
19397;DHT22;9834;48.076;11.878;2022-09-21T00:14:12;5.00;99.90
19397;DHT22;9834;48.076;11.878;2022-09-21T00:16:41;5.00;99.90
19397;DHT22;9834;48.076;11.878;2022-09-21T00:19:09;5.00;99.90
19397;DHT22;9834;48.076;11.878;2022-09-21T00:21:37;5.00;99.90
19397;DHT22;9834;48.076;11.878;2022-09-21T00:24:05;5.00;99.90
19397;DHT22;9834;48.076;11.878;2022-09-21T00:26:33;5.00;99.90
19397;DHT22;9834;48.076;11.878;2022-09-21T00:29:01;5.00;99.90
19397;DHT22;9834;48.076;11.878;2022-09-21T00:31:29;5.00;99.90
19397;DHT22;9834;48.076;11.878;2022-09-21T00:33:57;5.00;99.90
19397;DHT22;9834;48.076;11.878;2022-09-21T00:36:25;4.90;99.90
19397;DHT22;9834;48.076;11.878;2022-09-21T00:38:54;4.90;99.90
19397;DHT22;9834;48.076;11.878;2022-09-21T00:41:24;4.90;99.90
19397;DHT22;9834;48.076;11.878;2022-09-21T00:46:53;4.90;99.90
19397;DHT22;9834;48.076;11.878;2022-09-21T00:49:22;5.00;99.90
19397;DHT22;9834;48.076;11.878;2022-09-21T00:51:49;5.00;99.90
19397;DHT22;9834;48.076;11.878;2022-09-21T00:54:23;5.10;99.90
19397;DHT22;9834;48.076;11.878;2022-09-21T00:56:53;5.20;99.90
19397;DHT22;9834;48.076;11.878;2022-09-21T00:59:21;5.30;99.90
19397;DHT22;9834;48.076;11.878;2022-09-21T01:01:48;5.40;99.90
19397;DHT22;9834;48.076;11.878;2022-09-21T01:04:17;5.50;99.90
19397;DHT22;9834;48.076;11.878;2022-09-21T01:06:44;5.60;99.90
19397;DHT22;9834;48.076;11.878;2022-09-21T01:09:12;5.70;99.90
19397;DHT22;9834;48.076;11.878;2022-09-21T01:11:47;5.70;99.90
19397;DHT22;9834;48.076;11.878;2022-09-21T01:14:42;5.70;99.90
19397;DHT22;9834;48.076;11.878;2022-09-21T01:17:15;5.70;99.90
19397;DHT22;9834;48.076;11.878;2022-09-21T01:20:14;5.80;99.90
19397;DHT22;9834;48.076;11.878;2022-09-21T01:22:58;5.80;99.90
19397;DHT22;9834;48.076;11.878;2022-09-21T01:25:29;5.90;99.90
19397;DHT22;9834;48.076;11.878;2022-09-21T01:28:07;5.90;99.90
19397;DHT22;9834;48.076;11.878;2022-09-21T01:30:42;5.90;99.90
19397;DHT22;9834;48.076;11.878;2022-09-21T01:33:13;5.90;99.90
19397;DHT22;9834;48.076;11.878;2022-09-21T01:35:45;5.90;99.90
19397;DHT22;9834;48.076;11.878;2022-09-21T01:38:18;5.90;99.90
19397;DHT22;9834;48.076;11.878;2022-09-21T01:40:51;5.90;99.90
19397;DHT22;9834;48.076;11.878;2022-09-21T01:43:21;5.90;99.90
19397;DHT22;9834;48.076;11.878;2022-09-21T01:45:52;5.90;99.90
19397;DHT22;9834;48.076;11.878;2022-09-21T01:48:23;5.90;99.90
19397;DHT22;9834;48.076;11.878;2022-09-21T01:50:52;5.90;99.90
19397;DHT22;9834;48.076;11.878;2022-09-21T01:53:25;5.90;99.90
19397;DHT22;9834;48.076;11.878;2022-09-21T01:55:56;5.90;99.90
19397;DHT22;9834;48.076;11.878;2022-09-21T01:58:29;5.90;99.90
19397;DHT22;9834;48.076;11.878;2022-09-21T02:00:59;5.80;99.90
19397;DHT22;9834;48.076;11.878;2022-09-21T02:03:28;5.70;99.90
19397;DHT22;9834;48.076;11.878;2022-09-21T02:05:56;5.70;99.90
19397;DHT22;9834;48.076;11.878;2022-09-21T02:08:24;5.60;99.90
19397;DHT22;9834;48.076;11.878;2022-09-21T02:10:53;5.60;99.90
19397;DHT22;9834;48.076;11.878;2022-09-21T02:13:22;5.50;99.90
19397;DHT22;9834;48.076;11.878;2022-09-21T02:16:04;5.40;99.90
19397;DHT22;9834;48.076;11.878;2022-09-21T02:18:42;5.30;99.90
19397;DHT22;9834;48.076;11.878;2022-09-21T02:21:18;5.20;99.90
19397;DHT22;9834;48.076;11.878;2022-09-21T02:23:53;5.10;99.90
19397;DHT22;9834;48.076;11.878;2022-09-21T02:26:28;5.00;99.90
19397;DHT22;9834;48.076;11.878;2022-09-21T02:29:02;4.90;99.90
19397;DHT22;9834;48.076;11.878;2022-09-21T02:31:36;4.90;99.90
19397;DHT22;9834;48.076;11.878;2022-09-21T02:34:15;4.80;99.90
19397;DHT22;9834;48.076;11.878;2022-09-21T02:36:46;4.80;99.90
19397;DHT22;9834;48.076;11.878;2022-09-21T02:39:16;4.80;99.90
19397;DHT22;9834;48.076;11.878;2022-09-21T02:41:51;4.70;99.90
19397;DHT22;9834;48.076;11.878;2022-09-21T02:44:25;4.60;99.90
19397;DHT22;9834;48.076;11.878;2022-09-21T02:47:03;4.60;99.90
19397;DHT22;9834;48.076;11.878;2022-09-21T02:49:36;4.50;99.90
19397;DHT22;9834;48.076;11.878;2022-09-21T02:52:08;4.50;99.90
19397;DHT22;9834;48.076;11.878;2022-09-21T02:54:37;4.60;99.90
19397;DHT22;9834;48.076;11.878;2022-09-21T02:57:05;4.50;99.90
19397;DHT22;9834;48.076;11.878;2022-09-21T02:59:33;4.50;99.90
19397;DHT22;9834;48.076;11.878;2022-09-21T03:02:02;4.60;99.90
19397;DHT22;9834;48.076;11.878;2022-09-21T03:04:31;4.60;99.90
19397;DHT22;9834;48.076;11.878;2022-09-21T03:06:58;4.60;99.90
19397;DHT22;9834;48.076;11.878;2022-09-21T03:09:25;4.60;99.90
19397;DHT22;9834;48.076;11.878;2022-09-21T03:11:52;4.60;99.90
19397;DHT22;9834;48.076;11.878;2022-09-21T03:14:19;4.60;99.90
19397;DHT22;9834;48.076;11.878;2022-09-21T03:16:47;4.70;99.90
19397;DHT22;9834;48.076;11.878;2022-09-21T03:19:15;4.70;99.90
19397;DHT22;9834;48.076;11.878;2022-09-21T03:21:42;4.70;99.90
19397;DHT22;9834;48.076;11.878;2022-09-21T03:24:09;4.80;99.90
19397;DHT22;9834;48.076;11.878;2022-09-21T03:26:36;4.90;99.90
19397;DHT22;9834;48.076;11.878;2022-09-21T03:29:04;4.90;99.90
19397;DHT22;9834;48.076;11.878;2022-09-21T03:31:33;5.00;99.90
19397;DHT22;9834;48.076;11.878;2022-09-21T03:34:00;5.00;99.90
19397;DHT22;9834;48.076;11.878;2022-09-21T03:36:28;5.10;99.90
19397;DHT22;9834;48.076;11.878;2022-09-21T03:38:55;5.20;99.90
19397;DHT22;9834;48.076;11.878;2022-09-21T03:41:22;5.20;99.90
19397;DHT22;9834;48.076;11.878;2022-09-21T03:43:49;5.30;99.90
19397;DHT22;9834;48.076;11.878;2022-09-21T03:46:16;5.30;99.90
19397;DHT22;9834;48.076;11.878;2022-09-21T03:48:43;5.30;99.90
19397;DHT22;9834;48.076;11.878;2022-09-21T03:51:12;5.20;99.90
19397;DHT22;9834;48.076;11.878;2022-09-21T03:53:40;5.10;99.90
19397;DHT22;9834;48.076;11.878;2022-09-21T03:56:07;5.10;99.90
19397;DHT22;9834;48.076;11.878;2022-09-21T03:58:34;5.00;99.90
19397;DHT22;9834;48.076;11.878;2022-09-21T04:01:01;4.90;99.90
19397;DHT22;9834;48.076;11.878;2022-09-21T04:03:28;4.80;99.90
19397;DHT22;9834;48.076;11.878;2022-09-21T04:05:55;4.70;99.90
19397;DHT22;9834;48.076;11.878;2022-09-21T04:08:22;4.60;99.90
19397;DHT22;9834;48.076;11.878;2022-09-21T04:10:51;4.50;99.90
19397;DHT22;9834;48.076;11.878;2022-09-21T04:13:20;4.40;99.90
19397;DHT22;9834;48.076;11.878;2022-09-21T04:15:49;4.30;99.90
19397;DHT22;9834;48.076;11.878;2022-09-21T04:18:16;4.30;99.90
19397;DHT22;9834;48.076;11.878;2022-09-21T04:20:43;4.20;99.90
19397;DHT22;9834;48.076;11.878;2022-09-21T04:23:10;4.20;99.90
19397;DHT22;9834;48.076;11.878;2022-09-21T04:25:37;4.20;99.90
19397;DHT22;9834;48.076;11.878;2022-09-21T04:28:05;4.10;99.90
19397;DHT22;9834;48.076;11.878;2022-09-21T04:30:32;4.00;99.90
19397;DHT22;9834;48.076;11.878;2022-09-21T04:32:59;4.00;99.90
19397;DHT22;9834;48.076;11.878;2022-09-21T04:35:26;3.90;99.90
19397;DHT22;9834;48.076;11.878;2022-09-21T04:37:54;3.90;99.90
19397;DHT22;9834;48.076;11.878;2022-09-21T04:40:21;3.80;99.90
19397;DHT22;9834;48.076;11.878;2022-09-21T04:42:50;3.80;99.90
19397;DHT22;9834;48.076;11.878;2022-09-21T04:45:20;3.80;99.90
19397;DHT22;9834;48.076;11.878;2022-09-21T04:47:47;3.70;99.90
19397;DHT22;9834;48.076;11.878;2022-09-21T04:50:14;3.70;99.90
19397;DHT22;9834;48.076;11.878;2022-09-21T04:52:41;3.60;99.90
19397;DHT22;9834;48.076;11.878;2022-09-21T04:55:08;3.60;99.90
19397;DHT22;9834;48.076;11.878;2022-09-21T04:57:35;3.50;99.90
19397;DHT22;9834;48.076;11.878;2022-09-21T05:00:03;3.50;99.90
19397;DHT22;9834;48.076;11.878;2022-09-21T05:02:33;3.50;99.90
19397;DHT22;9834;48.076;11.878;2022-09-21T05:05:00;3.50;99.90
19397;DHT22;9834;48.076;11.878;2022-09-21T05:07:27;3.50;99.90
19397;DHT22;9834;48.076;11.878;2022-09-21T05:09:54;3.50;99.90
19397;DHT22;9834;48.076;11.878;2022-09-21T05:12:29;3.50;99.90
19397;DHT22;9834;48.076;11.878;2022-09-21T05:14:55;3.50;99.90
19397;DHT22;9834;48.076;11.878;2022-09-21T05:17:23;3.60;99.90
19397;DHT22;9834;48.076;11.878;2022-09-21T05:19:51;3.50;99.90
19397;DHT22;9834;48.076;11.878;2022-09-21T05:22:19;3.50;99.90
19397;DHT22;9834;48.076;11.878;2022-09-21T05:24:46;3.50;99.90
19397;DHT22;9834;48.076;11.878;2022-09-21T05:27:13;3.50;99.90
19397;DHT22;9834;48.076;11.878;2022-09-21T05:29:40;3.60;99.90
19397;DHT22;9834;48.076;11.878;2022-09-21T05:32:12;3.60;99.90
19397;DHT22;9834;48.076;11.878;2022-09-21T05:34:53;3.70;99.90
19397;DHT22;9834;48.076;11.878;2022-09-21T05:37:44;3.70;99.90
19397;DHT22;9834;48.076;11.878;2022-09-21T05:40:12;3.80;99.90
19397;DHT22;9834;48.076;11.878;2022-09-21T05:42:40;3.90;99.90
19397;DHT22;9834;48.076;11.878;2022-09-21T05:45:12;3.90;99.90
19397;DHT22;9834;48.076;11.878;2022-09-21T05:47:48;4.00;99.90
19397;DHT22;9834;48.076;11.878;2022-09-21T05:50:32;4.00;99.90
19397;DHT22;9834;48.076;11.878;2022-09-21T05:53:14;4.10;99.90
19397;DHT22;9834;48.076;11.878;2022-09-21T05:55:54;4.10;99.90
19397;DHT22;9834;48.076;11.878;2022-09-21T05:58:27;4.20;99.90
19397;DHT22;9834;48.076;11.878;2022-09-21T06:01:12;4.30;99.90
19397;DHT22;9834;48.076;11.878;2022-09-21T06:03:41;4.40;99.90
19397;DHT22;9834;48.076;11.878;2022-09-21T06:06:10;4.50;99.90
19397;DHT22;9834;48.076;11.878;2022-09-21T06:08:37;4.60;99.90
19397;DHT22;9834;48.076;11.878;2022-09-21T06:11:04;4.80;99.90
19397;DHT22;9834;48.076;11.878;2022-09-21T06:13:31;4.80;99.90
19397;DHT22;9834;48.076;11.878;2022-09-21T06:16:01;4.90;99.90
19397;DHT22;9834;48.076;11.878;2022-09-21T06:18:28;5.10;99.90
19397;DHT22;9834;48.076;11.878;2022-09-21T06:20:55;5.20;99.90
19397;DHT22;9834;48.076;11.878;2022-09-21T06:23:23;5.30;99.90
19397;DHT22;9834;48.076;11.878;2022-09-21T06:25:51;5.40;99.90
19397;DHT22;9834;48.076;11.878;2022-09-21T06:28:18;5.50;99.90
19397;DHT22;9834;48.076;11.878;2022-09-21T06:30:56;5.60;99.90
19397;DHT22;9834;48.076;11.878;2022-09-21T06:33:24;5.70;99.90
19397;DHT22;9834;48.076;11.878;2022-09-21T06:35:52;5.80;99.90
19397;DHT22;9834;48.076;11.878;2022-09-21T06:38:19;5.90;99.90
19397;DHT22;9834;48.076;11.878;2022-09-21T06:40:49;6.10;99.90
19397;DHT22;9834;48.076;11.878;2022-09-21T06:43:16;6.20;99.90
19397;DHT22;9834;48.076;11.878;2022-09-21T06:45:43;6.30;99.90
19397;DHT22;9834;48.076;11.878;2022-09-21T06:48:10;6.40;99.90
19397;DHT22;9834;48.076;11.878;2022-09-21T06:50:37;6.50;99.90
19397;DHT22;9834;48.076;11.878;2022-09-21T06:53:04;6.60;99.90
19397;DHT22;9834;48.076;11.878;2022-09-21T06:55:31;6.80;99.90
19397;DHT22;9834;48.076;11.878;2022-09-21T06:58:01;6.90;99.90
19397;DHT22;9834;48.076;11.878;2022-09-21T07:00:29;7.10;99.90
19397;DHT22;9834;48.076;11.878;2022-09-21T07:02:56;7.20;99.90
19397;DHT22;9834;48.076;11.878;2022-09-21T07:05:23;7.30;99.90
19397;DHT22;9834;48.076;11.878;2022-09-21T07:07:55;7.40;99.90
19397;DHT22;9834;48.076;11.878;2022-09-21T07:10:22;7.50;99.90
19397;DHT22;9834;48.076;11.878;2022-09-21T07:12:49;7.60;99.90
19397;DHT22;9834;48.076;11.878;2022-09-21T07:15:19;7.70;99.90
19397;DHT22;9834;48.076;11.878;2022-09-21T07:17:46;7.80;99.90
19397;DHT22;9834;48.076;11.878;2022-09-21T07:20:14;7.90;99.90
19397;DHT22;9834;48.076;11.878;2022-09-21T07:22:41;8.00;99.90
19397;DHT22;9834;48.076;11.878;2022-09-21T07:25:09;8.20;99.90
19397;DHT22;9834;48.076;11.878;2022-09-21T07:27:36;8.30;99.90
19397;DHT22;9834;48.076;11.878;2022-09-21T07:30:04;8.40;99.90
19397;DHT22;9834;48.076;11.878;2022-09-21T07:32:32;8.50;99.90
19397;DHT22;9834;48.076;11.878;2022-09-21T07:34:59;8.60;99.90
19397;DHT22;9834;48.076;11.878;2022-09-21T07:37:26;8.70;99.90
19397;DHT22;9834;48.076;11.878;2022-09-21T07:39:54;8.80;99.90
19397;DHT22;9834;48.076;11.878;2022-09-21T07:42:21;9.00;99.90
19397;DHT22;9834;48.076;11.878;2022-09-21T07:44:49;9.00;99.90
19397;DHT22;9834;48.076;11.878;2022-09-21T07:47:15;9.10;99.90
19397;DHT22;9834;48.076;11.878;2022-09-21T07:49:44;9.20;99.90
19397;DHT22;9834;48.076;11.878;2022-09-21T07:52:11;9.30;99.90
19397;DHT22;9834;48.076;11.878;2022-09-21T07:54:39;9.40;99.90
19397;DHT22;9834;48.076;11.878;2022-09-21T07:57:06;9.50;99.90
19397;DHT22;9834;48.076;11.878;2022-09-21T07:59:51;9.50;99.90
19397;DHT22;9834;48.076;11.878;2022-09-21T08:02:19;9.60;99.90
19397;DHT22;9834;48.076;11.878;2022-09-21T08:04:47;9.80;99.90
19397;DHT22;9834;48.076;11.878;2022-09-21T08:07:14;9.90;99.90
19397;DHT22;9834;48.076;11.878;2022-09-21T08:09:41;10.00;99.90
19397;DHT22;9834;48.076;11.878;2022-09-21T08:12:08;10.10;99.90
19397;DHT22;9834;48.076;11.878;2022-09-21T08:14:35;10.10;99.90
19397;DHT22;9834;48.076;11.878;2022-09-21T08:17:03;10.20;99.90
19397;DHT22;9834;48.076;11.878;2022-09-21T08:19:30;10.40;99.90
19397;DHT22;9834;48.076;11.878;2022-09-21T08:21:59;10.50;99.90
19397;DHT22;9834;48.076;11.878;2022-09-21T08:24:26;10.60;99.90
19397;DHT22;9834;48.076;11.878;2022-09-21T08:26:53;10.70;99.90
19397;DHT22;9834;48.076;11.878;2022-09-21T08:29:20;10.70;99.90
19397;DHT22;9834;48.076;11.878;2022-09-21T08:31:47;10.80;99.90
19397;DHT22;9834;48.076;11.878;2022-09-21T08:34:14;11.00;99.90
19397;DHT22;9834;48.076;11.878;2022-09-21T08:36:43;11.10;99.90
19397;DHT22;9834;48.076;11.878;2022-09-21T08:39:12;11.20;99.90
19397;DHT22;9834;48.076;11.878;2022-09-21T08:41:55;11.30;99.90
19397;DHT22;9834;48.076;11.878;2022-09-21T08:44:28;11.50;99.90
19397;DHT22;9834;48.076;11.878;2022-09-21T08:47:02;11.60;99.90
19397;DHT22;9834;48.076;11.878;2022-09-21T08:49:32;11.80;99.90
19397;DHT22;9834;48.076;11.878;2022-09-21T08:52:03;12.10;99.90
19397;DHT22;9834;48.076;11.878;2022-09-21T08:54:37;12.30;99.90
19397;DHT22;9834;48.076;11.878;2022-09-21T08:57:10;12.50;99.90
19397;DHT22;9834;48.076;11.878;2022-09-21T08:59:41;12.40;99.90
19397;DHT22;9834;48.076;11.878;2022-09-21T09:02:37;12.40;99.90
19397;DHT22;9834;48.076;11.878;2022-09-21T09:05:17;12.70;99.90
19397;DHT22;9834;48.076;11.878;2022-09-21T09:08:08;12.90;99.90
19397;DHT22;9834;48.076;11.878;2022-09-21T09:10:52;12.90;99.90
19397;DHT22;9834;48.076;11.878;2022-09-21T09:13:36;12.70;99.90
19397;DHT22;9834;48.076;11.878;2022-09-21T09:16:12;12.90;99.90
19397;DHT22;9834;48.076;11.878;2022-09-21T09:18:46;13.30;99.90
19397;DHT22;9834;48.076;11.878;2022-09-21T09:21:18;13.50;99.90
19397;DHT22;9834;48.076;11.878;2022-09-21T09:23:50;13.80;99.90
19397;DHT22;9834;48.076;11.878;2022-09-21T09:26:23;13.80;99.90
19397;DHT22;9834;48.076;11.878;2022-09-21T09:28:54;13.50;98.10
19397;DHT22;9834;48.076;11.878;2022-09-21T09:31:24;13.60;99.90
19397;DHT22;9834;48.076;11.878;2022-09-21T09:33:57;14.10;98.70
19397;DHT22;9834;48.076;11.878;2022-09-21T09:36:29;14.70;94.80
19397;DHT22;9834;48.076;11.878;2022-09-21T09:39:02;15.20;93.90
19397;DHT22;9834;48.076;11.878;2022-09-21T09:41:57;15.60;91.10
19397;DHT22;9834;48.076;11.878;2022-09-21T09:47:26;16.00;87.10
19397;DHT22;9834;48.076;11.878;2022-09-21T09:50:04;15.70;86.80
19397;DHT22;9834;48.076;11.878;2022-09-21T09:52:32;15.90;84.20
19397;DHT22;9834;48.076;11.878;2022-09-21T09:54:59;16.40;87.70
19397;DHT22;9834;48.076;11.878;2022-09-21T09:57:29;17.00;84.30
19397;DHT22;9834;48.076;11.878;2022-09-21T09:59:59;17.00;71.80
19397;DHT22;9834;48.076;11.878;2022-09-21T10:05:42;17.20;82.70
19397;DHT22;9834;48.076;11.878;2022-09-21T10:08:26;17.70;74.50
19397;DHT22;9834;48.076;11.878;2022-09-21T10:10:53;17.50;66.30
19397;DHT22;9834;48.076;11.878;2022-09-21T10:13:27;16.80;69.80
19397;DHT22;9834;48.076;11.878;2022-09-21T10:15:57;15.70;69.50
19397;DHT22;9834;48.076;11.878;2022-09-21T10:18:28;15.00;73.00
19397;DHT22;9834;48.076;11.878;2022-09-21T10:21:02;14.90;75.60
19397;DHT22;9834;48.076;11.878;2022-09-21T10:23:30;15.10;76.80
19397;DHT22;9834;48.076;11.878;2022-09-21T10:26:03;15.20;71.90
19397;DHT22;9834;48.076;11.878;2022-09-21T10:28:32;15.30;73.20
19397;DHT22;9834;48.076;11.878;2022-09-21T10:31:16;14.90;71.00
19397;DHT22;9834;48.076;11.878;2022-09-21T10:33:49;15.00;74.50
19397;DHT22;9834;48.076;11.878;2022-09-21T10:36:30;15.80;75.20
19397;DHT22;9834;48.076;11.878;2022-09-21T10:39:18;17.00;72.50
19397;DHT22;9834;48.076;11.878;2022-09-21T10:41:49;17.90;70.50
19397;DHT22;9834;48.076;11.878;2022-09-21T10:44:19;18.90;68.10
19397;DHT22;9834;48.076;11.878;2022-09-21T10:46:47;19.70;65.90
19397;DHT22;9834;48.076;11.878;2022-09-21T10:49:18;20.20;63.50
19397;DHT22;9834;48.076;11.878;2022-09-21T10:51:47;19.50;62.10
19397;DHT22;9834;48.076;11.878;2022-09-21T10:54:19;19.70;66.70
19397;DHT22;9834;48.076;11.878;2022-09-21T10:56:52;19.80;62.90
19397;DHT22;9834;48.076;11.878;2022-09-21T10:59:24;18.90;63.10
19397;DHT22;9834;48.076;11.878;2022-09-21T11:02:27;18.00;68.40
19397;DHT22;9834;48.076;11.878;2022-09-21T11:05:05;19.20;66.60
19397;DHT22;9834;48.076;11.878;2022-09-21T11:07:37;20.80;59.40
19397;DHT22;9834;48.076;11.878;2022-09-21T11:10:15;21.60;58.30
19397;DHT22;9834;48.076;11.878;2022-09-21T11:12:59;21.70;55.30
19397;DHT22;9834;48.076;11.878;2022-09-21T11:15:37;22.30;54.00
19397;DHT22;9834;48.076;11.878;2022-09-21T11:18:12;22.90;53.00
19397;DHT22;9834;48.076;11.878;2022-09-21T11:20:45;23.10;51.70
19397;DHT22;9834;48.076;11.878;2022-09-21T11:26:06;23.60;48.10
19397;DHT22;9834;48.076;11.878;2022-09-21T11:28:38;23.40;50.50
19397;DHT22;9834;48.076;11.878;2022-09-21T11:31:31;23.30;48.10
19397;DHT22;9834;48.076;11.878;2022-09-21T11:34:21;23.50;51.00
19397;DHT22;9834;48.076;11.878;2022-09-21T11:36:56;23.80;49.70
19397;DHT22;9834;48.076;11.878;2022-09-21T11:39:35;24.30;48.40
19397;DHT22;9834;48.076;11.878;2022-09-21T11:42:14;24.70;48.20
19397;DHT22;9834;48.076;11.878;2022-09-21T11:44:50;24.60;45.10
19397;DHT22;9834;48.076;11.878;2022-09-21T11:47:36;24.70;45.50
19397;DHT22;9834;48.076;11.878;2022-09-21T11:50:19;24.70;48.10
19397;DHT22;9834;48.076;11.878;2022-09-21T11:52:57;25.40;45.30
19397;DHT22;9834;48.076;11.878;2022-09-21T11:58:28;25.40;44.40
19397;DHT22;9834;48.076;11.878;2022-09-21T12:01:04;25.80;42.50
19397;DHT22;9834;48.076;11.878;2022-09-21T12:03:54;25.70;42.70
19397;DHT22;9834;48.076;11.878;2022-09-21T12:06:42;25.90;42.40
19397;DHT22;9834;48.076;11.878;2022-09-21T12:09:33;26.00;41.60
19397;DHT22;9834;48.076;11.878;2022-09-21T12:12:08;26.30;41.40
19397;DHT22;9834;48.076;11.878;2022-09-21T12:14:42;26.90;42.20
19397;DHT22;9834;48.076;11.878;2022-09-21T12:17:17;26.20;42.90
19397;DHT22;9834;48.076;11.878;2022-09-21T12:20:01;24.60;41.00
19397;DHT22;9834;48.076;11.878;2022-09-21T12:22:32;24.20;42.40
19397;DHT22;9834;48.076;11.878;2022-09-21T12:25:03;26.00;43.70
19397;DHT22;9834;48.076;11.878;2022-09-21T12:27:35;26.90;40.00
19397;DHT22;9834;48.076;11.878;2022-09-21T12:30:09;26.90;41.70
19397;DHT22;9834;48.076;11.878;2022-09-21T12:32:46;27.00;42.00
19397;DHT22;9834;48.076;11.878;2022-09-21T12:35:21;28.00;39.10
19397;DHT22;9834;48.076;11.878;2022-09-21T12:37:53;28.50;38.50
19397;DHT22;9834;48.076;11.878;2022-09-21T12:40:29;28.90;40.10
19397;DHT22;9834;48.076;11.878;2022-09-21T12:43:02;29.60;37.80
19397;DHT22;9834;48.076;11.878;2022-09-21T12:45:34;29.00;37.00
19397;DHT22;9834;48.076;11.878;2022-09-21T12:48:06;29.00;38.30
19397;DHT22;9834;48.076;11.878;2022-09-21T12:50:38;28.70;38.40
19397;DHT22;9834;48.076;11.878;2022-09-21T12:53:09;28.80;36.70
19397;DHT22;9834;48.076;11.878;2022-09-21T12:55:44;28.10;38.40
19397;DHT22;9834;48.076;11.878;2022-09-21T12:58:26;28.20;40.30
19397;DHT22;9834;48.076;11.878;2022-09-21T13:01:03;28.20;37.90
19397;DHT22;9834;48.076;11.878;2022-09-21T13:03:34;29.20;38.30
19397;DHT22;9834;48.076;11.878;2022-09-21T13:06:28;29.70;37.50
19397;DHT22;9834;48.076;11.878;2022-09-21T13:09:00;30.10;36.90
19397;DHT22;9834;48.076;11.878;2022-09-21T13:11:30;29.60;34.90
19397;DHT22;9834;48.076;11.878;2022-09-21T13:14:00;29.50;36.00
19397;DHT22;9834;48.076;11.878;2022-09-21T13:16:30;29.60;34.30
19397;DHT22;9834;48.076;11.878;2022-09-21T13:19:00;29.60;35.00
19397;DHT22;9834;48.076;11.878;2022-09-21T13:21:30;30.10;37.40
19397;DHT22;9834;48.076;11.878;2022-09-21T13:23:58;30.50;35.50
19397;DHT22;9834;48.076;11.878;2022-09-21T13:26:32;30.50;33.80
19397;DHT22;9834;48.076;11.878;2022-09-21T13:31:56;30.90;33.00
19397;DHT22;9834;48.076;11.878;2022-09-21T13:34:34;30.80;31.60
19397;DHT22;9834;48.076;11.878;2022-09-21T13:37:28;30.30;34.00
19397;DHT22;9834;48.076;11.878;2022-09-21T13:46:49;31.60;32.60
19397;DHT22;9834;48.076;11.878;2022-09-21T13:49:31;32.30;31.80
19397;DHT22;9834;48.076;11.878;2022-09-21T13:52:01;32.00;29.60
19397;DHT22;9834;48.076;11.878;2022-09-21T13:54:35;32.60;30.50
19397;DHT22;9834;48.076;11.878;2022-09-21T13:57:16;33.70;30.40
19397;DHT22;9834;48.076;11.878;2022-09-21T13:59:46;34.20;30.50
19397;DHT22;9834;48.076;11.878;2022-09-21T14:02:27;34.00;29.80
19397;DHT22;9834;48.076;11.878;2022-09-21T14:05:03;33.00;28.50
19397;DHT22;9834;48.076;11.878;2022-09-21T14:07:33;32.00;28.60
19397;DHT22;9834;48.076;11.878;2022-09-21T14:10:05;31.30;29.60
19397;DHT22;9834;48.076;11.878;2022-09-21T14:12:39;31.50;30.50
19397;DHT22;9834;48.076;11.878;2022-09-21T14:15:34;31.80;29.20
19397;DHT22;9834;48.076;11.878;2022-09-21T14:21:13;32.20;30.60
19397;DHT22;9834;48.076;11.878;2022-09-21T14:24:18;32.10;29.80
19397;DHT22;9834;48.076;11.878;2022-09-21T14:26:59;33.10;30.00
19397;DHT22;9834;48.076;11.878;2022-09-21T14:29:32;32.70;27.90
19397;DHT22;9834;48.076;11.878;2022-09-21T14:32:10;32.50;29.30
19397;DHT22;9834;48.076;11.878;2022-09-21T14:34:40;32.20;29.50
19397;DHT22;9834;48.076;11.878;2022-09-21T14:37:27;32.80;29.10
19397;DHT22;9834;48.076;11.878;2022-09-21T14:39:57;32.70;28.80
19397;DHT22;9834;48.076;11.878;2022-09-21T14:42:28;32.20;29.90
19397;DHT22;9834;48.076;11.878;2022-09-21T14:45:05;32.00;29.60
19397;DHT22;9834;48.076;11.878;2022-09-21T14:48:00;31.40;29.00
19397;DHT22;9834;48.076;11.878;2022-09-21T14:50:32;30.90;29.00
19397;DHT22;9834;48.076;11.878;2022-09-21T14:53:24;31.20;29.70
19397;DHT22;9834;48.076;11.878;2022-09-21T14:56:08;30.80;29.10
19397;DHT22;9834;48.076;11.878;2022-09-21T14:58:56;30.10;29.90
19397;DHT22;9834;48.076;11.878;2022-09-21T15:01:37;29.80;29.90
19397;DHT22;9834;48.076;11.878;2022-09-21T15:04:27;30.00;30.30
19397;DHT22;9834;48.076;11.878;2022-09-21T15:07:04;30.30;28.40
19397;DHT22;9834;48.076;11.878;2022-09-21T15:10:09;30.70;29.30
19397;DHT22;9834;48.076;11.878;2022-09-21T15:12:58;30.50;28.70
19397;DHT22;9834;48.076;11.878;2022-09-21T15:15:33;30.40;29.10
19397;DHT22;9834;48.076;11.878;2022-09-21T15:18:14;31.00;29.80
19397;DHT22;9834;48.076;11.878;2022-09-21T15:20:54;30.10;30.50
19397;DHT22;9834;48.076;11.878;2022-09-21T15:23:24;29.30;30.80
19397;DHT22;9834;48.076;11.878;2022-09-21T15:25:55;29.20;32.90
19397;DHT22;9834;48.076;11.878;2022-09-21T15:28:24;28.80;32.20
19397;DHT22;9834;48.076;11.878;2022-09-21T15:30:56;29.80;32.50
19397;DHT22;9834;48.076;11.878;2022-09-21T15:33:23;29.30;31.10
19397;DHT22;9834;48.076;11.878;2022-09-21T15:35:52;29.00;32.60
19397;DHT22;9834;48.076;11.878;2022-09-21T15:38:27;28.90;32.10
19397;DHT22;9834;48.076;11.878;2022-09-21T15:40:55;28.70;33.70
19397;DHT22;9834;48.076;11.878;2022-09-21T15:43:22;28.10;32.30
19397;DHT22;9834;48.076;11.878;2022-09-21T15:45:51;27.60;34.00
19397;DHT22;9834;48.076;11.878;2022-09-21T15:48:22;27.50;35.70
19397;DHT22;9834;48.076;11.878;2022-09-21T15:50:52;27.50;36.90
19397;DHT22;9834;48.076;11.878;2022-09-21T15:53:24;26.70;36.00
19397;DHT22;9834;48.076;11.878;2022-09-21T15:55:54;26.00;37.50
19397;DHT22;9834;48.076;11.878;2022-09-21T15:58:30;25.10;38.30
19397;DHT22;9834;48.076;11.878;2022-09-21T16:01:10;24.10;40.00
19397;DHT22;9834;48.076;11.878;2022-09-21T16:03:40;23.20;41.10
19397;DHT22;9834;48.076;11.878;2022-09-21T16:06:23;22.50;43.20
19397;DHT22;9834;48.076;11.878;2022-09-21T16:08:50;22.20;44.70
19397;DHT22;9834;48.076;11.878;2022-09-21T16:11:19;21.60;45.20
19397;DHT22;9834;48.076;11.878;2022-09-21T16:13:58;20.90;46.20
19397;DHT22;9834;48.076;11.878;2022-09-21T16:17:03;20.10;47.60
19397;DHT22;9834;48.076;11.878;2022-09-21T16:19:40;18.90;48.60
19397;DHT22;9834;48.076;11.878;2022-09-21T16:22:10;17.40;51.10
19397;DHT22;9834;48.076;11.878;2022-09-21T16:24:43;16.20;53.90
19397;DHT22;9834;48.076;11.878;2022-09-21T16:27:16;15.50;56.50
19397;DHT22;9834;48.076;11.878;2022-09-21T16:29:45;15.10;58.10
19397;DHT22;9834;48.076;11.878;2022-09-21T16:32:26;14.90;58.20
19397;DHT22;9834;48.076;11.878;2022-09-21T16:35:23;14.70;58.90
19397;DHT22;9834;48.076;11.878;2022-09-21T16:37:52;14.50;60.00
19397;DHT22;9834;48.076;11.878;2022-09-21T16:40:23;14.30;60.70